Terminal Aerodrome Forecast
Issued by NWS

Home | Current Version | Previous Version | Text Only | Print | Product List | Glossary On
Versions: 1 2 3 4 5 6 7 8 9 10 11 12 13 14 15 16 17 18 19 20 21 22 23 24 25 26 27 28 29
000
FTUS41 KOKX 281728
TAFSWF
TAF
KSWF 281728Z 2818/0124 13006KT P6SM SCT120
     FM282200 13006KT P6SM BKN040 BKN110
     FM010000 14006KT 5SM BR BKN007 OVC040
     FM010200 15006KT 3SM -RA BR BKN006 OVC010
     FM010500 16004KT 1SM RA BR OVC004
     FM010800 19005KT 3SM BR OVC004
     FM011500 21013G21KT 5SM -SHRA BR OVC008
     FM012100 22023G35KT 3SM SHRA BKN015
      AMD NOT SKED=

USA.gov is the U.S. government's official web portal to all federal, state and local government web resources and services.